Time;durP1;ratioP1;P1;durP2;ratioP2;P2;SDS_P1;SDS_P2;PMS_P1;PMS_P2;Temp;Humidity;BMP_temperature;BMP_pressure;BME280_temperature;BME280_humidity;BME280_pressure;Samples;Min_cycle;Max_cycle;Signal;HPM_P1;HPM_P2
2023/10/22 00:00:20;;;;;;;0.70;0.70;;;12.40;99.90;;;;;;5074405;28;20038;-71
2023/10/22 00:02:46;;;;;;;1.52;1.00;;;12.50;99.90;;;;;;5074462;28;20041;-71
2023/10/22 00:05:11;;;;;;;1.05;1.05;;;12.50;99.90;;;;;;5074482;28;20520;-71
2023/10/22 00:07:37;;;;;;;1.30;1.00;;;12.60;99.90;;;;;;5074167;28;20048;-71
2023/10/22 00:10:03;;;;;;;0.60;0.60;;;12.70;99.90;;;;;;5074891;28;20048;-71
2023/10/22 00:12:29;;;;;;;0.60;0.60;;;12.70;99.90;;;;;;5074391;28;20491;-71
2023/10/22 00:14:54;;;;;;;0.60;0.60;;;13.10;99.90;;;;;;5074356;28;20044;-71
2023/10/22 00:17:22;;;;;;;0.60;0.60;;;12.70;99.90;;;;;;5074221;28;20044;-71
2023/10/22 00:19:48;;;;;;;0.60;0.60;;;12.80;99.90;;;;;;5074209;28;20090;-71
2023/10/22 00:22:14;;;;;;;0.60;0.60;;;13.00;99.90;;;;;;5074075;28;20040;-71
2023/10/22 00:24:41;;;;;;;0.60;0.60;;;12.90;99.90;;;;;;5073746;28;20396;-71
2023/10/22 00:27:06;;;;;;;;;;;12.90;99.90;;;;;;5074186;28;20036;-71
2023/10/22 00:29:32;;;;;;;0.70;0.70;;;12.90;99.90;;;;;;5073880;28;19920;-71
2023/10/22 00:31:57;;;;;;;0.70;0.70;;;12.90;99.90;;;;;;5074152;28;20033;-71
2023/10/22 00:34:23;;;;;;;0.82;0.82;;;13.00;99.90;;;;;;5073709;28;20051;-71
2023/10/22 00:36:49;;;;;;;0.60;0.60;;;13.00;99.90;;;;;;5073818;28;20036;-71
2023/10/22 00:39:15;;;;;;;0.60;0.60;;;13.00;99.90;;;;;;5073879;28;20384;-71
2023/10/22 00:41:41;;;;;;;0.60;0.60;;;13.00;99.90;;;;;;5073532;28;20044;-71
2023/10/22 00:44:06;;;;;;;0.60;0.60;;;13.00;99.90;;;;;;5073836;28;20127;-71
2023/10/22 00:46:32;;;;;;;0.60;0.60;;;13.20;99.90;;;;;;5073750;28;20037;-71
2023/10/22 00:48:58;;;;;;;0.60;0.60;;;13.00;99.90;;;;;;5073703;28;20363;-71
2023/10/22 00:51:24;;;;;;;0.60;0.60;;;13.00;99.90;;;;;;5073577;28;20127;-71
2023/10/22 00:53:51;;;;;;;0.60;0.60;;;13.00;99.90;;;;;;5073689;28;20090;-71
2023/10/22 00:56:17;;;;;;;0.60;0.60;;;13.00;99.90;;;;;;5073923;28;20422;-71
2023/10/22 00:58:43;;;;;;;0.60;0.60;;;13.00;99.90;;;;;;5073620;28;20040;-71
2023/10/22 01:01:12;;;;;;;0.60;0.60;;;13.00;99.90;;;;;;5073623;28;20086;-71
2023/10/22 01:03:39;;;;;;;0.52;0.52;;;13.00;99.90;;;;;;5073513;28;20106;-71
2023/10/22 01:06:05;;;;;;;0.60;0.60;;;13.00;99.90;;;;;;5073409;28;20052;-71
2023/10/22 01:08:35;;;;;;;0.60;0.60;;;13.10;99.90;;;;;;5073320;28;20084;-71
2023/10/22 01:11:05;;;;;;;0.65;0.65;;;13.10;99.90;;;;;;5073561;28;20139;-71
2023/10/22 01:13:31;;;;;;;0.98;0.95;;;13.10;99.90;;;;;;5073438;28;20040;-71
2023/10/22 01:15:56;;;;;;;0.60;0.60;;;13.00;99.90;;;;;;5073474;28;20090;-71
2023/10/22 01:18:22;;;;;;;0.60;0.60;;;13.10;99.90;;;;;;5073452;28;20411;-71
2023/10/22 01:20:48;;;;;;;0.50;0.50;;;13.10;99.90;;;;;;5073367;28;20040;-71
2023/10/22 01:23:13;;;;;;;0.60;0.60;;;13.00;99.90;;;;;;5073315;28;20058;-71
2023/10/22 01:25:39;;;;;;;1.90;1.47;;;13.10;99.90;;;;;;5073414;28;20040;-71
2023/10/22 01:28:05;;;;;;;0.60;0.60;;;13.00;99.90;;;;;;5072981;28;20076;-71
2023/10/22 01:30:30;;;;;;;0.60;0.60;;;13.00;99.90;;;;;;5073460;28;20037;-71
2023/10/22 01:32:56;;;;;;;1.60;1.33;;;13.00;99.90;;;;;;5073343;28;20492;-71
2023/10/22 01:35:21;;;;;;;0.70;0.70;;;13.00;99.90;;;;;;5072267;28;20337;-71
2023/10/22 01:37:47;;;;;;;0.60;0.60;;;12.90;99.90;;;;;;5073177;28;20471;-71
2023/10/22 01:40:13;;;;;;;0.60;0.60;;;12.90;99.90;;;;;;5073136;28;20036;-71
2023/10/22 01:42:39;;;;;;;0.52;0.52;;;12.80;99.90;;;;;;5073207;28;20279;-71
2023/10/22 01:45:06;;;;;;;0.60;0.60;;;12.70;99.90;;;;;;5073162;28;20426;-71
2023/10/22 01:47:32;;;;;;;;;;;12.60;99.90;;;;;;5073598;28;20045;-71
2023/10/22 01:49:57;;;;;;;0.50;0.50;;;12.60;99.90;;;;;;5073336;28;20422;-71
2023/10/22 01:52:23;;;;;;;0.60;0.60;;;12.50;99.90;;;;;;5076949;28;20075;-71
2023/10/22 01:54:52;;;;;;;0.50;0.50;;;12.50;99.90;;;;;;5076753;28;20044;-71
2023/10/22 01:57:18;;;;;;;0.40;0.40;;;12.40;99.90;;;;;;5076646;28;20032;-71
2023/10/22 01:59:44;;;;;;;0.50;0.50;;;12.40;99.90;;;;;;5076868;28;20205;-71
2023/10/22 02:02:09;;;;;;;0.50;0.50;;;12.40;99.90;;;;;;5076745;28;20048;-70
2023/10/22 02:04:35;;;;;;;0.60;0.60;;;12.30;99.90;;;;;;5076679;28;20043;-71
2023/10/22 02:07:01;;;;;;;0.60;0.60;;;12.40;99.90;;;;;;5076565;28;20460;-71
2023/10/22 02:09:26;;;;;;;0.60;0.60;;;12.40;99.90;;;;;;5076841;28;20086;-71
2023/10/22 02:11:53;;;;;;;0.63;0.63;;;12.30;99.90;;;;;;5076683;28;20090;-71
2023/10/22 02:14:19;;;;;;;0.60;0.60;;;12.40;99.90;;;;;;5076559;28;20047;-71
2023/10/22 02:16:45;;;;;;;0.60;0.60;;;12.30;99.90;;;;;;5076734;28;20040;-71
2023/10/22 02:19:11;;;;;;;0.60;0.60;;;12.40;99.90;;;;;;5076467;28;20515;-71
2023/10/22 02:21:36;;;;;;;0.60;0.60;;;12.50;99.90;;;;;;5076851;28;20391;-71
2023/10/22 02:24:02;;;;;;;0.60;0.60;;;12.40;99.90;;;;;;5076401;28;20167;-71
2023/10/22 02:26:28;;;;;;;0.60;0.60;;;12.40;99.90;;;;;;5076292;28;20044;-71
2023/10/22 02:28:53;;;;;;;0.70;0.70;;;12.40;99.90;;;;;;5076208;28;20036;-71
2023/10/22 02:31:19;;;;;;;0.70;0.70;;;12.40;99.90;;;;;;5076417;28;20032;-71
2023/10/22 02:33:45;;;;;;;4.63;1.87;;;12.50;99.90;;;;;;5076201;28;20397;-71
2023/10/22 02:36:10;;;;;;;1.00;1.00;;;12.40;99.90;;;;;;5076158;28;20040;-70
2023/10/22 02:38:37;;;;;;;0.70;0.70;;;12.30;99.90;;;;;;5076146;28;20036;-71
2023/10/22 02:41:02;;;;;;;0.70;0.70;;;12.30;99.90;;;;;;5076372;28;20115;-71
2023/10/22 02:43:28;;;;;;;0.70;0.70;;;12.30;99.90;;;;;;5075962;28;20071;-71
2023/10/22 02:45:55;;;;;;;0.70;0.70;;;12.30;99.90;;;;;;5075879;28;20055;-71
2023/10/22 02:48:22;;;;;;;0.70;0.70;;;12.20;99.90;;;;;;5075843;28;20054;-70
2023/10/22 02:50:48;;;;;;;0.70;0.70;;;12.30;99.90;;;;;;5076659;28;20439;-71
2023/10/22 02:53:14;;;;;;;0.70;0.70;;;12.30;99.90;;;;;;5076239;28;20132;-70
2023/10/22 02:55:40;;;;;;;0.70;0.70;;;12.30;99.90;;;;;;5075818;28;20037;-71
2023/10/22 02:58:06;;;;;;;1.07;0.97;;;12.30;99.90;;;;;;5075765;28;20062;-71
2023/10/22 03:00:36;;;;;;;0.80;0.80;;;12.40;99.90;;;;;;5075793;28;20044;-70
2023/10/22 03:03:03;;;;;;;0.80;0.80;;;12.40;99.90;;;;;;5075374;28;20377;-70
2023/10/22 03:05:33;;;;;;;0.75;0.75;;;12.40;99.90;;;;;;5075603;28;20422;-71
2023/10/22 03:08:03;;;;;;;0.80;0.80;;;12.40;99.90;;;;;;5075289;28;20045;-70
2023/10/22 03:10:29;;;;;;;0.90;0.90;;;12.40;99.90;;;;;;5075518;28;20115;-70
2023/10/22 03:12:59;;;;;;;0.85;0.85;;;12.40;99.90;;;;;;5075499;28;20174;-70
2023/10/22 03:15:25;;;;;;;0.80;0.80;;;12.40;99.90;;;;;;5075462;28;20044;-70
2023/10/22 03:17:53;;;;;;;0.80;0.80;;;12.40;99.90;;;;;;5075368;28;20036;-70
2023/10/22 03:20:18;;;;;;;0.75;0.75;;;12.40;99.90;;;;;;5075735;28;20029;-70
2023/10/22 03:22:44;;;;;;;0.77;0.77;;;12.50;99.90;;;;;;5075813;28;20055;-70
2023/10/22 03:25:10;;;;;;;0.80;0.80;;;12.50;99.90;;;;;;5075586;28;20040;-71
2023/10/22 03:27:35;;;;;;;0.90;0.90;;;12.50;99.90;;;;;;5075033;28;20036;-70
2023/10/22 03:30:03;;;;;;;0.80;0.80;;;12.50;99.90;;;;;;5074912;28;20479;-71
2023/10/22 03:32:29;;;;;;;0.82;0.82;;;12.50;99.90;;;;;;5075075;28;20044;-71
2023/10/22 03:34:55;;;;;;;0.90;0.90;;;12.40;99.90;;;;;;5075546;28;20468;-71
2023/10/22 03:37:20;;;;;;;0.75;0.75;;;12.50;99.90;;;;;;5075055;28;20080;-70
2023/10/22 03:39:46;;;;;;;0.70;0.70;;;12.40;99.90;;;;;;5075254;28;20094;-70
2023/10/22 03:42:12;;;;;;;0.60;0.60;;;12.40;99.90;;;;;;5075167;28;20119;-71
2023/10/22 03:44:37;;;;;;;0.70;0.70;;;12.40;99.90;;;;;;5074855;28;20460;-70
2023/10/22 03:47:03;;;;;;;0.70;0.70;;;12.30;99.90;;;;;;5074647;28;20047;-70
2023/10/22 03:49:29;;;;;;;0.70;0.70;;;12.30;99.90;;;;;;5074702;28;20448;-71
2023/10/22 03:51:54;;;;;;;1.20;1.10;;;12.30;99.90;;;;;;5074720;28;20055;-70
2023/10/22 03:54:20;;;;;;;0.80;0.80;;;12.20;99.90;;;;;;5074966;28;20087;-71
2023/10/22 03:56:45;;;;;;;0.80;0.80;;;12.90;99.90;;;;;;5074633;28;20127;-70
2023/10/22 03:59:11;;;;;;;0.73;0.73;;;12.20;99.90;;;;;;5074684;28;20036;-70
2023/10/22 04:01:37;;;;;;;0.80;0.80;;;12.20;99.90;;;;;;5074537;28;20052;-71
2023/10/22 04:04:02;;;;;;;0.80;0.80;;;12.20;99.90;;;;;;5073555;28;20045;-70
2023/10/22 04:06:28;;;;;;;0.82;0.82;;;12.20;99.90;;;;;;5074833;28;20369;-70
2023/10/22 04:08:54;;;;;;;0.80;0.80;;;12.60;99.90;;;;;;5074531;28;20105;-70
2023/10/22 04:11:20;;;;;;;0.80;0.80;;;12.10;99.90;;;;;;5074415;28;20044;-71
2023/10/22 04:13:46;;;;;;;0.80;0.80;;;12.60;99.90;;;;;;5073610;28;20044;-71
2023/10/22 04:16:16;;;;;;;0.70;0.70;;;12.10;99.90;;;;;;5074042;28;20042;-70
2023/10/22 04:18:41;;;;;;;0.68;0.68;;;12.10;99.90;;;;;;5074021;28;20043;-70
2023/10/22 04:21:15;;;;;;;0.60;0.60;;;12.10;99.90;;;;;;5074061;28;20049;-71
2023/10/22 04:23:41;;;;;;;0.68;0.68;;;12.00;99.90;;;;;;5072706;28;20041;-70
2023/10/22 04:26:14;;;;;;;0.65;0.65;;;12.00;99.90;;;;;;5074028;28;20044;-70
2023/10/22 04:28:43;;;;;;;0.60;0.60;;;12.00;99.90;;;;;;5073660;28;20032;-70
2023/10/22 04:31:09;;;;;;;0.52;0.52;;;12.00;99.90;;;;;;5074470;28;20040;-70
2023/10/22 04:33:35;;;;;;;0.60;0.60;;;12.40;99.90;;;;;;5074011;28;20048;-70
2023/10/22 04:36:01;;;;;;;0.57;0.57;;;12.00;99.90;;;;;;5073942;28;20089;-71
2023/10/22 04:38:27;;;;;;;0.60;0.60;;;12.00;99.90;;;;;;5073892;28;20036;-70
2023/10/22 04:40:52;;;;;;;0.60;0.60;;;12.00;99.90;;;;;;5074013;28;20044;-70
2023/10/22 04:43:18;;;;;;;0.52;0.52;;;11.90;99.90;;;;;;5073903;28;20119;-71
2023/10/22 04:45:48;;;;;;;0.60;0.60;;;11.90;99.90;;;;;;5073776;28;20041;-71
2023/10/22 04:48:13;;;;;;;0.55;0.55;;;11.90;99.90;;;;;;5073654;28;20078;-71
2023/10/22 04:50:39;;;;;;;0.60;0.60;;;11.90;99.90;;;;;;5073777;28;20044;-71
2023/10/22 04:53:05;;;;;;;0.60;0.60;;;11.90;99.90;;;;;;5073756;28;20507;-70
2023/10/22 04:55:30;;;;;;;0.60;0.60;;;11.90;99.90;;;;;;5072655;28;20373;-70
2023/10/22 04:57:56;;;;;;;0.60;0.60;;;11.90;99.90;;;;;;5073599;28;20119;-70
2023/10/22 05:00:22;;;;;;;0.60;0.60;;;11.90;99.90;;;;;;5073681;28;20044;-71
2023/10/22 05:02:48;;;;;;;0.50;0.50;;;11.90;99.90;;;;;;5072385;28;20390;-71
2023/10/22 05:05:14;;;;;;;0.50;0.50;;;11.80;99.90;;;;;;5073934;28;20523;-70
2023/10/22 05:07:40;;;;;;;0.50;0.50;;;11.80;99.90;;;;;;5073294;28;20041;-70
2023/10/22 05:10:06;;;;;;;0.50;0.50;;;11.80;99.90;;;;;;5073475;28;20385;-71
2023/10/22 05:12:32;;;;;;;0.55;0.55;;;11.80;99.90;;;;;;5073535;28;20043;-73
2023/10/22 05:14:57;;;;;;;0.50;0.50;;;11.80;99.90;;;;;;5073300;28;20040;-72
2023/10/22 05:17:26;;;;;;;0.50;0.50;;;11.60;99.90;;;;;;5073545;28;20079;-71
2023/10/22 05:19:52;;;;;;;0.50;0.50;;;11.80;99.90;;;;;;5073480;28;20041;-73
2023/10/22 05:22:17;;;;;;;0.50;0.50;;;11.80;99.90;;;;;;5073519;28;20043;-71
2023/10/22 05:24:49;;;;;;;0.50;0.50;;;11.80;99.90;;;;;;5074880;28;20059;-70
2023/10/22 05:27:16;;;;;;;0.50;0.50;;;11.80;99.90;;;;;;5077583;28;20383;-70
2023/10/22 05:29:43;;;;;;;0.50;0.50;;;11.80;99.90;;;;;;5077093;28;20040;-70
2023/10/22 05:32:09;;;;;;;0.50;0.50;;;11.80;99.90;;;;;;5077453;28;20055;-70
2023/10/22 05:34:34;;;;;;;0.50;0.50;;;11.90;99.90;;;;;;5077744;28;20045;-70
2023/10/22 05:37:00;;;;;;;0.50;0.50;;;11.80;99.90;;;;;;5077457;28;20045;-70
2023/10/22 05:39:26;;;;;;;0.50;0.50;;;11.80;99.90;;;;;;5077591;28;20045;-70
2023/10/22 05:41:51;;;;;;;0.50;0.50;;;11.90;99.90;;;;;;5077060;28;20051;-70
2023/10/22 05:44:19;;;;;;;0.50;0.50;;;11.80;99.90;;;;;;5077279;28;20166;-70
2023/10/22 05:46:44;;;;;;;0.57;0.57;;;11.90;99.90;;;;;;5077107;28;20097;-70
2023/10/22 05:49:11;;;;;;;0.50;0.50;;;11.80;99.90;;;;;;5077105;28;20131;-72
2023/10/22 05:51:38;;;;;;;0.43;0.43;;;11.80;99.90;;;;;;5077099;28;20098;-70
2023/10/22 05:54:04;;;;;;;0.50;0.50;;;11.80;99.90;;;;;;5077065;28;20134;-71
2023/10/22 05:56:33;;;;;;;0.50;0.50;;;11.80;99.90;;;;;;5076933;28;20135;-71
2023/10/22 05:59:04;;;;;;;0.50;0.50;;;11.80;99.90;;;;;;5076778;28;20041;-71
2023/10/22 06:01:30;;;;;;;0.50;0.50;;;11.80;99.90;;;;;;5076899;28;20032;-71
2023/10/22 06:03:55;;;;;;;0.50;0.50;;;11.80;99.90;;;;;;5077336;28;20044;-71
2023/10/22 06:06:21;;;;;;;0.50;0.50;;;11.80;99.90;;;;;;5076249;28;20097;-72
2023/10/22 06:08:47;;;;;;;0.50;0.50;;;11.80;99.90;;;;;;5075800;28;20472;-71
2023/10/22 06:11:14;;;;;;;0.50;0.50;;;11.80;99.90;;;;;;5075699;28;20047;-71
2023/10/22 06:13:39;;;;;;;;;;;11.90;99.90;;;;;;5076505;28;20106;-70
2023/10/22 06:16:05;;;;;;;0.50;0.50;;;12.10;99.90;;;;;;5076057;28;20352;-71
2023/10/22 06:18:30;;;;;;;0.50;0.50;;;11.80;99.90;;;;;;5076077;28;20471;-72
2023/10/22 06:20:56;;;;;;;0.50;0.50;;;11.70;99.90;;;;;;5076523;28;20074;-72
2023/10/22 06:23:21;;;;;;;0.50;0.50;;;11.70;99.90;;;;;;5076447;28;20032;-71
2023/10/22 06:25:48;;;;;;;0.47;0.47;;;11.60;99.90;;;;;;5075107;28;20036;-71
2023/10/22 06:28:13;;;;;;;0.50;0.50;;;11.60;99.90;;;;;;5076008;28;20134;-71
2023/10/22 06:30:40;;;;;;;0.50;0.50;;;11.60;99.90;;;;;;5076789;28;20072;-71
2023/10/22 06:33:06;;;;;;;;;;;12.30;99.90;;;;;;5076816;28;20032;-70
2023/10/22 06:35:31;;;;;;;0.50;0.50;;;11.60;99.90;;;;;;5076153;28;19920;-72
2023/10/22 06:37:57;;;;;;;0.50;0.50;;;11.50;99.90;;;;;;5075394;28;20072;-71
2023/10/22 06:40:23;;;;;;;0.70;0.70;;;11.60;99.90;;;;;;5076178;28;20040;-70
2023/10/22 06:42:50;;;;;;;0.50;0.50;;;11.50;99.90;;;;;;5075845;28;20033;-71
2023/10/22 06:45:17;;;;;;;0.50;0.50;;;11.50;99.90;;;;;;5075173;28;20043;-72
2023/10/22 06:47:43;;;;;;;0.50;0.50;;;11.50;99.90;;;;;;5076107;28;20076;-71
2023/10/22 06:50:11;;;;;;;0.50;0.50;;;11.50;99.90;;;;;;5075801;28;20463;-71
2023/10/22 06:52:37;;;;;;;0.70;0.70;;;11.50;99.90;;;;;;5075915;28;20044;-71
2023/10/22 06:55:03;;;;;;;0.50;0.50;;;11.50;99.90;;;;;;5075817;28;20040;-71
2023/10/22 06:57:29;;;;;;;0.52;0.52;;;11.50;99.90;;;;;;5075578;28;20044;-72
2023/10/22 06:59:57;;;;;;;0.50;0.50;;;11.50;99.90;;;;;;5075686;28;20037;-72
2023/10/22 07:02:23;;;;;;;0.50;0.50;;;11.50;99.90;;;;;;5075391;28;20037;-71
2023/10/22 07:04:56;;;;;;;0.50;0.50;;;11.50;99.90;;;;;;5072454;28;20059;-72
2023/10/22 07:07:23;;;;;;;0.50;0.50;;;11.40;99.90;;;;;;5075244;28;20521;-71
2023/10/22 07:09:49;;;;;;;0.50;0.50;;;11.40;99.90;;;;;;5072134;28;20033;-79
2023/10/22 07:12:16;;;;;;;0.50;0.50;;;11.70;99.90;;;;;;5073888;28;20037;-80
2023/10/22 07:14:42;;;;;;;0.50;0.50;;;11.40;99.90;;;;;;5076080;28;20044;-70
2023/10/22 07:17:08;;;;;;;0.57;0.57;;;11.40;99.90;;;;;;5075534;28;20047;-74
2023/10/22 07:19:34;;;;;;;0.50;0.50;;;11.70;99.90;;;;;;5075472;28;20033;-78
2023/10/22 07:22:00;;;;;;;0.50;0.50;;;11.80;99.90;;;;;;5075268;28;20033;-72
2023/10/22 07:24:26;;;;;;;0.50;0.50;;;11.50;99.90;;;;;;5074222;28;20123;-72
2023/10/22 07:26:55;;;;;;;0.47;0.47;;;11.50;99.90;;;;;;5075116;28;20046;-71
2023/10/22 07:29:20;;;;;;;0.60;0.60;;;11.50;99.90;;;;;;5075540;28;20350;-73
2023/10/22 07:31:48;;;;;;;0.50;0.50;;;11.50;99.90;;;;;;5073559;28;20480;-72
2023/10/22 07:34:14;;;;;;;0.50;0.50;;;11.50;99.90;;;;;;5073991;28;20384;-72
2023/10/22 07:36:40;;;;;;;1.80;1.70;;;11.50;99.90;;;;;;5074547;28;20033;-70
2023/10/22 07:39:06;;;;;;;0.50;0.50;;;11.50;99.90;;;;;;5074865;28;20464;-70
2023/10/22 07:41:31;;;;;;;0.50;0.50;;;11.50;99.90;;;;;;5074911;28;20040;-72
2023/10/22 07:43:57;;;;;;;2.20;0.70;;;11.60;99.90;;;;;;5074942;28;20086;-71
2023/10/22 07:46:22;;;;;;;0.65;0.65;;;11.50;99.90;;;;;;5073999;28;20464;-71
2023/10/22 07:48:48;;;;;;;0.50;0.50;;;11.50;99.90;;;;;;5073717;28;20045;-71
2023/10/22 07:51:21;;;;;;;0.60;0.60;;;11.40;99.90;;;;;;5074757;28;20384;-71
2023/10/22 07:53:47;;;;;;;0.50;0.50;;;11.60;99.90;;;;;;5074641;28;20048;-71
2023/10/22 07:56:16;;;;;;;0.50;0.50;;;11.50;99.90;;;;;;5074621;28;20434;-71
2023/10/22 07:58:41;;;;;;;0.60;0.60;;;11.60;99.90;;;;;;5074526;28;20040;-71
2023/10/22 08:01:08;;;;;;;0.50;0.50;;;11.70;99.90;;;;;;5074551;28;20039;-71
2023/10/22 08:03:34;;;;;;;0.60;0.60;;;11.60;99.90;;;;;;5074238;28;20052;-71
2023/10/22 08:06:04;;;;;;;0.50;0.50;;;11.70;99.90;;;;;;5074480;28;20032;-71
2023/10/22 08:08:30;;;;;;;0.50;0.50;;;11.70;99.90;;;;;;5074259;28;20465;-71
2023/10/22 08:10:57;;;;;;;0.50;0.50;;;11.70;99.90;;;;;;5073249;28;20040;-71
2023/10/22 08:13:23;;;;;;;0.50;0.50;;;11.80;99.90;;;;;;5074088;28;20278;-71
2023/10/22 08:15:49;;;;;;;0.70;0.70;;;11.80;99.90;;;;;;5074164;28;20039;-71
2023/10/22 08:18:15;;;;;;;0.60;0.60;;;11.80;99.90;;;;;;5074192;28;20044;-71
2023/10/22 08:20:41;;;;;;;0.57;0.57;;;11.90;99.90;;;;;;5074245;28;20043;-71
2023/10/22 08:23:07;;;;;;;1.38;0.80;;;11.90;99.90;;;;;;5073707;28;20072;-71
2023/10/22 08:25:33;;;;;;;0.60;0.60;;;11.90;99.90;;;;;;5074473;28;20044;-71
2023/10/22 08:27:59;;;;;;;0.60;0.60;;;11.90;99.90;;;;;;5073848;28;20389;-71
2023/10/22 08:30:24;;;;;;;0.50;0.50;;;11.90;99.90;;;;;;5073996;28;20036;-71
2023/10/22 08:32:51;;;;;;;0.65;0.65;;;12.00;99.90;;;;;;5073942;28;20087;-71
2023/10/22 08:35:16;;;;;;;0.60;0.60;;;12.00;99.90;;;;;;5073888;28;20487;-71
2023/10/22 08:37:42;;;;;;;0.50;0.50;;;12.00;99.90;;;;;;5073866;28;20040;-70
2023/10/22 08:40:08;;;;;;;0.52;0.52;;;12.20;99.90;;;;;;5074210;28;20377;-71
2023/10/22 08:42:35;;;;;;;0.50;0.50;;;12.10;99.90;;;;;;5073796;28;20056;-71
2023/10/22 08:45:02;;;;;;;0.50;0.50;;;12.10;99.90;;;;;;5073769;28;20048;-71
2023/10/22 08:47:28;;;;;;;0.50;0.50;;;12.10;99.90;;;;;;5073653;28;20052;-71
2023/10/22 08:49:55;;;;;;;0.50;0.50;;;12.20;99.90;;;;;;5073539;28;20047;-71
2023/10/22 08:52:21;;;;;;;0.50;0.50;;;12.30;99.90;;;;;;5073625;28;20294;-71
2023/10/22 08:54:47;;;;;;;0.63;0.63;;;12.20;99.90;;;;;;5073682;28;20044;-71
2023/10/22 08:57:13;;;;;;;0.50;0.50;;;12.20;99.90;;;;;;5073650;28;20036;-71
2023/10/22 08:59:38;;;;;;;0.60;0.60;;;12.20;99.90;;;;;;5073260;28;20055;-71
2023/10/22 09:02:09;;;;;;;0.65;0.65;;;12.30;99.90;;;;;;5073870;28;20476;-71
2023/10/22 09:04:35;;;;;;;0.50;0.50;;;12.30;99.90;;;;;;5073875;28;20079;-71
2023/10/22 09:07:01;;;;;;;0.50;0.50;;;12.40;99.90;;;;;;5073424;28;20072;-71
2023/10/22 09:09:33;;;;;;;0.50;0.50;;;12.40;99.90;;;;;;5073025;28;20090;-71
2023/10/22 09:12:00;;;;;;;0.52;0.52;;;12.40;99.90;;;;;;5073185;28;20044;-71
2023/10/22 09:14:26;;;;;;;3.00;1.57;;;12.30;99.90;;;;;;5072359;28;20049;-70
2023/10/22 09:16:52;;;;;;;0.40;0.40;;;12.40;99.90;;;;;;5073516;28;20048;-71
2023/10/22 09:19:37;;;;;;;0.50;0.50;;;12.40;99.90;;;;;;5073418;28;20040;-71
2023/10/22 09:22:06;;;;;;;0.52;0.52;;;12.50;99.90;;;;;;5072614;28;20049;-71
2023/10/22 09:24:33;;;;;;;0.50;0.50;;;12.40;99.90;;;;;;5073364;28;20086;-71
2023/10/22 09:26:59;;;;;;;0.40;0.40;;;12.50;99.90;;;;;;5073324;28;20044;-71
2023/10/22 09:29:26;;;;;;;0.40;0.40;;;12.50;99.90;;;;;;5073211;28;20047;-71
2023/10/22 09:31:53;;;;;;;0.40;0.40;;;12.50;99.90;;;;;;5073274;28;20424;-70
2023/10/22 09:34:33;;;;;;;0.50;0.50;;;12.70;99.90;;;;;;5073500;28;20419;-71
2023/10/22 09:36:59;;;;;;;0.40;0.40;;;12.50;99.90;;;;;;5073290;28;20468;-71
2023/10/22 09:39:38;;;;;;;0.40;0.40;;;12.50;99.90;;;;;;5073233;28;20499;-71
2023/10/22 09:42:06;;;;;;;0.40;0.40;;;12.60;99.90;;;;;;5073218;28;20045;-72
2023/10/22 09:44:32;;;;;;;0.40;0.40;;;12.70;99.90;;;;;;5073205;28;20477;-71
2023/10/22 09:47:02;;;;;;;0.50;0.50;;;12.80;99.90;;;;;;5073173;28;20047;-71
2023/10/22 09:49:32;;;;;;;0.50;0.50;;;12.90;99.90;;;;;;5073012;28;20032;-71
2023/10/22 09:52:00;;;;;;;0.40;0.40;;;13.00;99.90;;;;;;5073327;28;20083;-71
2023/10/22 09:54:39;;;;;;;0.57;0.57;;;13.50;99.90;;;;;;5073047;28;20066;-71
2023/10/22 09:57:17;;;;;;;0.65;0.65;;;13.20;99.90;;;;;;5071717;28;20040;-71
2023/10/22 09:59:44;;;;;;;0.60;0.60;;;13.20;99.90;;;;;;5073467;28;20037;-71
2023/10/22 10:02:15;;;;;;;0.60;0.60;;;13.20;99.90;;;;;;5073055;28;20467;-71
2023/10/22 10:04:43;;;;;;;0.50;0.50;;;13.30;99.90;;;;;;5073285;28;20119;-71
2023/10/22 10:07:09;;;;;;;0.70;0.60;;;13.30;99.90;;;;;;5072811;28;20045;-72
2023/10/22 10:09:36;;;;;;;0.50;0.50;;;13.30;99.90;;;;;;5072821;28;20113;-71
2023/10/22 10:12:08;;;;;;;0.60;0.60;;;13.30;99.90;;;;;;5074522;28;20107;-71
2023/10/22 10:14:44;;;;;;;0.70;0.70;;;13.30;99.90;;;;;;5076165;28;20472;-76
2023/10/22 10:17:10;;;;;;;0.50;0.50;;;13.30;99.90;;;;;;5075218;28;20036;-76
2023/10/22 10:19:37;;;;;;;0.50;0.50;;;13.30;99.90;;;;;;5076302;28;20032;-78
2023/10/22 10:22:03;;;;;;;;;;;13.20;99.90;;;;;;5076809;28;20048;-71
2023/10/22 10:24:33;;;;;;;0.50;0.50;;;13.20;99.90;;;;;;5076009;28;19916;-71
2023/10/22 10:26:58;;;;;;;1.15;0.80;;;13.30;99.90;;;;;;5076204;28;20075;-72
2023/10/22 10:29:25;;;;;;;0.50;0.50;;;13.10;99.90;;;;;;5075930;28;20508;-72
2023/10/22 10:31:52;;;;;;;0.52;0.52;;;13.40;99.90;;;;;;5075512;28;20123;-72
2023/10/22 10:34:25;;;;;;;0.52;0.52;;;13.40;99.90;;;;;;5076117;28;20040;-72
2023/10/22 10:36:52;;;;;;;0.60;0.60;;;13.60;99.90;;;;;;5076149;28;20040;-71
2023/10/22 10:39:37;;;;;;;0.57;0.57;;;13.60;99.90;;;;;;5074922;28;20078;-72
2023/10/22 10:42:03;;;;;;;0.60;0.60;;;13.60;99.90;;;;;;5075242;28;20051;-71
2023/10/22 10:44:30;;;;;;;0.60;0.60;;;13.70;99.90;;;;;;5074620;28;20132;-71
2023/10/22 10:47:21;;;;;;;1.38;1.27;;;13.70;99.90;;;;;;5074929;28;20040;-79
2023/10/22 10:50:11;;;;;;;0.75;0.75;;;13.70;99.90;;;;;;5075752;28;20491;-74
2023/10/22 10:52:56;;;;;;;0.82;0.82;;;13.70;99.90;;;;;;5076150;28;20044;-71
2023/10/22 10:55:22;;;;;;;0.95;0.90;;;13.80;99.90;;;;;;5076101;28;20040;-72
2023/10/22 10:57:50;;;;;;;1.10;1.00;;;13.70;99.90;;;;;;5078339;28;20112;-73
2023/10/22 11:00:20;;;;;;;0.80;0.80;;;13.90;99.90;;;;;;5076089;28;20044;-75
2023/10/22 11:02:48;;;;;;;0.70;0.70;;;13.70;99.90;;;;;;5078781;28;20476;-73
2023/10/22 11:05:15;;;;;;;0.70;0.70;;;13.80;99.90;;;;;;5073367;28;20419;-71
2023/10/22 11:07:43;;;;;;;0.68;0.68;;;13.70;99.90;;;;;;5075109;28;20480;-71
2023/10/22 11:10:14;;;;;;;1.10;0.80;;;13.80;99.90;;;;;;5074840;28;20599;-72
2023/10/22 11:12:40;;;;;;;0.70;0.70;;;13.80;99.90;;;;;;5075190;28;20040;-71
2023/10/22 11:15:10;;;;;;;1.00;0.90;;;13.80;99.90;;;;;;5073206;28;20044;-73
2023/10/22 11:17:38;;;;;;;0.70;0.70;;;13.80;99.90;;;;;;5075265;28;20442;-71
2023/10/22 11:20:04;;;;;;;0.70;0.70;;;13.70;99.90;;;;;;5075588;28;20086;-74
2023/10/22 11:22:30;;;;;;;;;;;13.70;99.90;;;;;;5090976;28;20044;-71
2023/10/22 11:25:01;;;;;;;0.70;0.70;;;13.80;99.90;;;;;;5075150;28;19916;-73
2023/10/22 11:27:27;;;;;;;0.70;0.70;;;13.80;99.90;;;;;;5075439;28;20037;-73
2023/10/22 11:29:53;;;;;;;0.70;0.70;;;13.80;99.90;;;;;;5075096;28;20040;-72
2023/10/22 11:32:21;;;;;;;0.70;0.70;;;13.80;99.90;;;;;;5075219;28;20048;-70
2023/10/22 11:34:48;;;;;;;0.60;0.60;;;13.80;99.90;;;;;;5075273;28;20047;-73
2023/10/22 11:37:13;;;;;;;0.70;0.70;;;13.80;99.90;;;;;;5075209;28;20380;-76
2023/10/22 11:39:41;;;;;;;0.70;0.70;;;13.90;99.90;;;;;;5074981;28;20035;-71
2023/10/22 11:42:07;;;;;;;0.60;0.60;;;13.90;99.90;;;;;;5074991;28;20479;-72
2023/10/22 11:44:34;;;;;;;;;;;14.00;99.90;;;;;;5075312;28;20048;-71
2023/10/22 11:47:21;;;;;;;0.70;0.70;;;13.90;99.90;;;;;;5074828;28;19916;-77
2023/10/22 11:49:46;;;;;;;2.67;1.77;;;13.80;99.90;;;;;;5074820;28;20431;-71
2023/10/22 11:52:34;;;;;;;0.60;0.60;;;13.80;99.90;;;;;;5073269;28;20049;-73
2023/10/22 11:55:00;;;;;;;0.50;0.50;;;13.70;99.90;;;;;;5075068;28;20380;-74
2023/10/22 11:57:26;;;;;;;0.87;0.87;;;13.80;99.90;;;;;;5074623;28;20040;-72
2023/10/22 11:59:51;;;;;;;0.50;0.50;;;13.70;99.90;;;;;;5074587;28;20044;-72
2023/10/22 12:02:17;;;;;;;0.60;0.60;;;13.70;99.90;;;;;;5074575;28;20044;-73
2023/10/22 12:04:42;;;;;;;0.60;0.60;;;13.70;99.90;;;;;;5074150;28;20052;-73
2023/10/22 12:07:08;;;;;;;0.50;0.50;;;13.60;99.90;;;;;;5074714;28;20460;-72
2023/10/22 12:09:34;;;;;;;0.60;0.60;;;13.50;99.90;;;;;;5074441;28;20402;-75
2023/10/22 12:11:59;;;;;;;0.60;0.60;;;13.40;99.90;;;;;;5073064;28;20081;-71
2023/10/22 12:14:25;;;;;;;0.50;0.50;;;13.40;99.90;;;;;;5074269;28;20419;-72
2023/10/22 12:16:50;;;;;;;0.60;0.60;;;13.30;99.90;;;;;;5074322;28;20040;-71
2023/10/22 12:19:16;;;;;;;0.50;0.50;;;13.30;99.90;;;;;;5074130;28;20071;-73
2023/10/22 12:21:41;;;;;;;0.50;0.50;;;13.20;99.90;;;;;;5074164;28;20345;-73
2023/10/22 12:24:07;;;;;;;0.50;0.50;;;13.20;99.90;;;;;;5074097;28;20044;-71
2023/10/22 12:26:33;;;;;;;0.50;0.50;;;13.20;99.90;;;;;;5074460;28;20044;-72
2023/10/22 12:28:58;;;;;;;0.50;0.50;;;13.10;99.90;;;;;;5074170;28;20043;-72
2023/10/22 12:31:24;;;;;;;0.50;0.50;;;13.10;99.90;;;;;;5074129;28;20055;-74
2023/10/22 12:33:50;;;;;;;0.50;0.50;;;13.20;99.90;;;;;;5073550;28;20473;-71
2023/10/22 12:36:15;;;;;;;0.50;0.50;;;13.10;99.90;;;;;;5073874;28;20040;-71
2023/10/22 12:38:41;;;;;;;0.50;0.50;;;13.00;99.90;;;;;;5072894;28;20037;-73
2023/10/22 12:41:07;;;;;;;0.75;0.60;;;12.90;99.90;;;;;;5074276;28;20118;-71
2023/10/22 12:43:32;;;;;;;0.40;0.40;;;13.00;99.90;;;;;;5074024;28;20063;-78
2023/10/22 12:46:02;;;;;;;0.50;0.50;;;13.10;99.90;;;;;;5073811;28;20553;-76